Time;durP1;ratioP1;P1;durP2;ratioP2;P2;SDS_P1;SDS_P2;PMS_P1;PMS_P2;Temp;Humidity;BMP_temperature;BMP_pressure;BME280_temperature;BME280_humidity;BME280_pressure;Samples;Min_cycle;Max_cycle;Signal;HPM_P1;HPM_P2
2023/05/30 00:01:10;;;;;;;5.60;1.88;;;;;;;15.19;41.71;100756.19;5053160;28;20025;-72
2023/05/30 00:03:35;;;;;;;13.43;2.73;;;;;;;15.11;41.71;100752.88;5053506;28;20284;-72
2023/05/30 00:06:02;;;;;;;4.47;1.97;;;;;;;15.19;41.96;100761.69;5053139;28;20807;-71
2023/05/30 00:08:27;;;;;;;7.53;1.70;;;;;;;14.87;42.57;100755.31;5051096;28;20270;-71
2023/05/30 00:10:52;;;;;;;7.13;2.28;;;;;;;14.79;43.15;100762.09;5053176;28;20033;-72
2023/05/30 00:13:19;;;;;;;10.17;2.57;;;;;;;14.74;42.94;100767.56;5052740;28;20071;-71
2023/05/30 00:15:44;;;;;;;7.20;2.15;;;;;;;14.85;42.87;100763.00;5052700;28;20972;-71
2023/05/30 00:18:11;;;;;;;8.88;2.03;;;;;;;14.89;43.06;100769.59;5052256;28;20025;-71
2023/05/30 00:20:36;;;;;;;11.43;3.28;;;;;;;14.67;43.16;100770.56;5052804;28;20052;-71
2023/05/30 00:23:01;;;;;;;6.35;2.35;;;;;;;14.82;43.54;100762.41;5052457;28;20041;-72
2023/05/30 00:25:27;;;;;;;13.47;2.40;;;;;;;14.74;43.34;100757.44;5052903;28;20712;-72
2023/05/30 00:27:52;;;;;;;7.55;2.47;;;;;;;14.63;43.18;100769.44;5052600;28;20373;-72
2023/05/30 00:30:17;;;;;;;7.83;2.00;;;;;;;14.54;43.99;100763.66;5053003;28;20029;-71
2023/05/30 00:32:43;;;;;;;10.05;2.83;;;;;;;14.52;43.69;100766.63;5052383;28;20281;-72
2023/05/30 00:35:08;;;;;;;11.23;2.80;;;;;;;14.52;44.04;100772.13;5052720;28;20063;-71
2023/05/30 00:37:34;;;;;;;10.93;2.58;;;;;;;14.53;43.66;100773.78;5052762;28;20474;-72
2023/05/30 00:39:59;;;;;;;14.13;2.63;;;;;;;14.51;44.01;100770.50;5052169;28;20025;-72
2023/05/30 00:42:27;;;;;;;5.85;2.45;;;;;;;14.33;44.81;100775.34;5052266;28;20094;-71
2023/05/30 00:44:52;;;;;;;13.10;3.78;;;;;;;14.41;44.45;100771.28;5052522;28;20405;-72
2023/05/30 00:47:18;;;;;;;8.77;3.28;;;;;;;14.39;44.98;100778.09;5053040;28;20075;-71
2023/05/30 00:49:44;;;;;;;7.30;3.00;;;;;;;14.28;45.04;100780.78;5051615;28;20085;-71
2023/05/30 00:52:09;;;;;;;4.95;2.38;;;;;;;14.24;45.10;100785.97;5052869;28;20433;-71
2023/05/30 00:54:37;;;;;;;12.02;3.28;;;;;;;14.39;44.97;100772.63;5053063;28;20068;-71
2023/05/30 00:57:03;;;;;;;6.72;2.67;;;;;;;14.40;45.16;100782.50;5052902;28;20083;-71
2023/05/30 00:59:29;;;;;;;7.10;2.15;;;;;;;14.38;45.20;100781.97;5051938;28;20672;-71
2023/05/30 01:01:55;;;;;;;13.93;3.38;;;;;;;14.41;45.46;100767.69;5052719;28;20128;-72
2023/05/30 01:04:22;;;;;;;22.90;2.72;;;;;;;14.45;45.11;100774.31;5052678;28;20040;-72
2023/05/30 01:06:48;;;;;;;10.82;2.80;;;;;;;14.40;45.37;100774.28;5052694;28;21113;-71
2023/05/30 01:09:14;;;;;;;13.15;2.58;;;;;;;14.22;46.05;100787.31;5051956;28;20040;-73
2023/05/30 01:11:58;;;;;;;5.97;1.83;;;;;;;14.01;46.19;100784.47;5051138;28;20025;-73
2023/05/30 01:14:29;;;;;;;9.38;2.95;;;;;;;14.13;46.66;100789.75;5052759;28;20033;-72
2023/05/30 01:17:02;;;;;;;16.67;2.80;;;;;;;14.14;46.67;100790.59;5052655;28;20103;-72
2023/05/30 01:19:46;;;;;;;9.63;2.30;;;;;;;14.27;46.58;100789.28;5051993;28;20039;-72
2023/05/30 01:22:26;;;;;;;11.77;2.70;;;;;;;14.22;47.10;100790.06;5052056;28;20060;-72
2023/05/30 01:25:12;;;;;;;7.63;2.40;;;;;;;14.17;46.77;100796.38;5052583;28;20084;-72
2023/05/30 01:28:10;;;;;;;5.40;2.00;;;;;;;14.06;47.60;100784.50;5052399;28;20192;-72
2023/05/30 01:30:38;;;;;;;6.53;2.88;;;;;;;14.04;47.61;100786.66;5051441;28;20055;-72
2023/05/30 01:33:06;;;;;;;12.05;2.65;;;;;;;14.08;47.09;100786.97;5052009;28;20032;-72
2023/05/30 01:35:31;;;;;;;10.45;2.53;;;;;;;13.83;47.93;100792.00;5052165;28;20033;-72
2023/05/30 01:37:57;;;;;;;16.20;3.20;;;;;;;13.92;47.78;100791.50;5051465;28;20025;-72
2023/05/30 01:40:26;;;;;;;18.45;3.85;;;;;;;13.75;48.37;100796.03;5051845;28;20033;-72
2023/05/30 01:43:19;;;;;;;18.42;3.33;;;;;;;13.46;49.16;100799.06;5050719;28;20119;-72
2023/05/30 01:46:26;;;;;;;9.57;2.47;;;;;;;13.64;48.91;100797.88;5032003;28;20124;-72
2023/05/30 01:49:02;;;;;;;6.80;2.55;;;;;;;13.71;49.12;100800.38;5048450;28;20033;-72
2023/05/30 01:51:55;;;;;;;19.33;3.30;;;;;;;13.69;48.78;100791.59;5048845;28;20065;-72
2023/05/30 01:54:21;;;;;;;10.70;2.67;;;;;;;13.59;49.72;100792.34;5039758;28;20044;-72
2023/05/30 01:56:50;;;;;;;9.43;3.55;;;;;;;13.59;49.49;100794.25;5055468;28;20083;-72
2023/05/30 01:59:17;;;;;;;10.13;2.85;;;;;;;13.30;49.46;100787.13;5055179;28;20155;-73
2023/05/30 02:01:43;;;;;;;13.20;2.63;;;;;;;13.37;49.66;100795.94;5054952;28;20060;-72
2023/05/30 02:04:09;;;;;;;12.02;2.42;;;;;;;13.45;49.44;100800.13;5055562;28;20063;-72
2023/05/30 02:06:35;;;;;;;23.33;2.45;;;;;;;13.51;49.37;100793.59;5055433;28;20032;-72
2023/05/30 02:09:00;;;;;;;6.15;2.58;;;;;;;13.46;49.76;100793.56;5054526;28;20516;-72
2023/05/30 02:11:25;;;;;;;5.80;2.10;;;;;;;13.18;50.09;100812.72;5055179;28;20036;-73
2023/05/30 02:13:51;;;;;;;5.18;1.77;;;;;;;13.04;50.89;100805.97;5054981;28;20050;-72
2023/05/30 02:16:18;;;;;;;8.85;2.45;;;;;;;13.27;50.28;100806.78;5055211;28;20029;-72
2023/05/30 02:18:44;;;;;;;9.45;2.47;;;;;;;13.22;50.88;100802.06;5056943;28;20040;-72
2023/05/30 02:21:10;;;;;;;6.53;2.75;;;;;;;13.23;50.86;100809.22;5054829;28;20059;-72
2023/05/30 02:23:36;;;;;;;11.43;3.25;;;;;;;13.26;50.98;100814.16;5054999;28;20052;-73
2023/05/30 02:26:01;;;;;;;9.68;2.88;;;;;;;13.18;51.17;100812.72;5055483;28;20028;-73
2023/05/30 02:28:27;;;;;;;6.85;2.38;;;;;;;13.11;52.03;100814.00;5054262;28;20044;-72
2023/05/30 02:30:52;;;;;;;7.53;2.72;;;;;;;13.15;51.58;100820.63;5054949;28;20044;-73
2023/05/30 02:33:17;;;;;;;14.10;2.92;;;;;;;13.07;52.29;100816.44;5054974;28;20093;-72
2023/05/30 02:35:42;;;;;;;8.00;2.80;;;;;;;12.91;52.99;100823.63;5054815;28;20115;-73
2023/05/30 02:38:08;;;;;;;11.53;2.50;;;;;;;12.86;53.18;100821.66;5054103;28;20029;-73
2023/05/30 02:40:33;;;;;;;10.67;3.00;;;;;;;12.85;53.38;100830.97;5053905;28;20273;-73
2023/05/30 02:42:58;;;;;;;10.23;3.23;;;;;;;12.66;54.14;100833.16;5054938;28;20261;-73
2023/05/30 02:45:23;;;;;;;13.40;3.87;;;;;;;12.65;54.39;100832.31;5054455;28;20437;-72
2023/05/30 02:47:49;;;;;;;10.77;4.13;;;;;;;12.52;54.50;100833.53;5054543;28;20289;-73
2023/05/30 02:50:15;;;;;;;11.82;3.50;;;;;;;12.36;55.40;100848.88;5054200;28;20775;-72
2023/05/30 02:52:40;;;;;;;18.13;4.60;;;;;;;12.33;55.31;100843.91;5052928;28;20028;-72
2023/05/30 02:55:06;;;;;;;11.65;3.58;;;;;;;12.30;55.77;100847.16;5054285;28;20078;-72
2023/05/30 02:57:32;;;;;;;9.15;3.25;;;;;;;12.44;55.99;100847.63;5054668;28;20077;-72
2023/05/30 02:59:57;;;;;;;13.90;5.13;;;;;;;12.43;55.99;100841.31;5053815;28;20063;-74
2023/05/30 03:02:22;;;;;;;16.77;4.38;;;;;;;12.59;55.46;100838.81;5054422;28;20071;-73
2023/05/30 03:04:47;;;;;;;12.10;2.93;;;;;;;12.57;55.29;100833.59;5053965;28;20038;-72
2023/05/30 03:07:13;;;;;;;7.22;3.05;;;;;;;12.63;55.75;100839.94;5054235;28;20272;-72
2023/05/30 03:09:40;;;;;;;15.55;4.38;;;;;;;12.75;54.82;100841.75;5052002;28;20115;-72
2023/05/30 03:12:06;;;;;;;9.93;3.30;;;;;;;12.84;55.14;100837.50;5054450;28;20806;-72
2023/05/30 03:14:32;;;;;;;10.27;2.85;;;;;;;12.72;55.46;100843.91;5054075;28;20033;-72
2023/05/30 03:16:57;;;;;;;8.65;2.55;;;;;;;12.79;55.34;100849.22;5054251;28;20032;-72
2023/05/30 03:19:22;;;;;;;13.07;4.47;;;;;;;12.74;55.79;100835.47;5053482;28;20031;-72
2023/05/30 03:21:49;;;;;;;13.50;3.87;;;;;;;12.82;56.03;100842.41;5053696;28;20368;-72
2023/05/30 03:24:15;;;;;;;13.77;4.45;;;;;;;12.90;56.66;100839.22;5053765;28;20990;-73
2023/05/30 03:26:40;;;;;;;19.27;4.13;;;;;;;12.94;56.41;100845.00;5053856;28;20040;-72
2023/05/30 03:29:07;;;;;;;18.53;5.73;;;;;;;13.11;56.46;100834.00;5053446;28;20039;-72
2023/05/30 03:31:33;;;;;;;30.45;5.00;;;;;;;13.04;56.63;100833.34;5054072;28;20264;-72
2023/05/30 03:33:58;;;;;;;11.35;4.30;;;;;;;13.14;56.39;100846.34;5053954;28;20029;-72
2023/05/30 03:36:25;;;;;;;18.00;5.60;;;;;;;13.10;56.44;100837.81;5054135;28;20573;-72
2023/05/30 03:38:51;;;;;;;16.88;5.30;;;;;;;12.96;57.13;100831.88;5051367;28;20033;-72
2023/05/30 03:41:16;;;;;;;13.85;5.00;;;;;;;12.95;57.33;100836.56;5053833;28;20090;-72
2023/05/30 03:43:41;;;;;;;11.98;5.25;;;;;;;13.11;56.92;100839.47;5053564;28;20089;-73
2023/05/30 03:46:07;;;;;;;24.13;5.07;;;;;;;13.17;57.11;100838.47;5053337;28;20554;-73
2023/05/30 03:48:32;;;;;;;12.00;3.83;;;;;;;13.08;57.42;100834.50;5053365;28;20292;-73
2023/05/30 03:50:57;;;;;;;15.63;4.67;;;;;;;13.32;56.36;100839.72;5053398;28;20344;-73
2023/05/30 03:53:23;;;;;;;8.98;4.13;;;;;;;13.29;56.65;100837.47;5053295;28;20270;-73
2023/05/30 03:55:48;;;;;;;9.97;4.70;;;;;;;13.27;56.50;100839.66;5053453;28;20034;-73
2023/05/30 03:58:13;;;;;;;15.05;5.38;;;;;;;13.03;57.13;100838.03;5053039;28;20296;-73
2023/05/30 04:00:38;;;;;;;27.83;6.10;;;;;;;13.08;57.12;100848.19;5053359;28;20056;-73
2023/05/30 04:03:04;;;;;;;16.03;5.77;;;;;;;13.18;57.43;100855.72;5053299;28;20782;-72
2023/05/30 04:05:29;;;;;;;12.55;5.05;;;;;;;13.05;57.41;100851.44;5053851;28;20265;-73
2023/05/30 04:07:55;;;;;;;16.40;5.57;;;;;;;13.07;57.63;100839.16;5052634;28;20054;-72
2023/05/30 04:10:20;;;;;;;13.20;4.97;;;;;;;13.05;57.42;100845.97;5053068;28;20106;-72
2023/05/30 04:12:45;;;;;;;12.00;5.55;;;;;;;13.06;57.39;100853.91;5053222;28;20040;-72
2023/05/30 04:15:10;;;;;;;11.38;5.40;;;;;;;12.92;57.42;100848.00;5052751;28;20208;-72
2023/05/30 04:17:36;;;;;;;13.80;5.13;;;;;;;12.99;58.04;100853.31;5052900;28;20035;-72
2023/05/30 04:20:04;;;;;;;17.50;6.15;;;;;;;13.21;57.07;100838.75;5052111;28;20296;-73
2023/05/30 04:22:29;;;;;;;30.45;8.13;;;;;;;13.29;56.82;100845.69;5052038;28;20036;-72
2023/05/30 04:24:56;;;;;;;21.63;7.70;;;;;;;13.13;57.83;100848.25;5052823;28;20368;-72
2023/05/30 04:27:22;;;;;;;15.52;6.75;;;;;;;13.21;57.91;100851.63;5053014;28;20071;-73
2023/05/30 04:29:48;;;;;;;18.90;7.53;;;;;;;13.20;57.66;100850.78;5052354;28;20033;-72
2023/05/30 04:32:14;;;;;;;17.83;7.13;;;;;;;13.12;57.21;100857.53;5053368;28;20082;-72
2023/05/30 04:34:39;;;;;;;14.35;6.40;;;;;;;13.26;58.02;100851.69;5052747;28;20607;-72
2023/05/30 04:37:06;;;;;;;14.75;7.57;;;;;;;13.24;57.31;100859.34;5053028;28;20509;-72
2023/05/30 04:39:32;;;;;;;27.23;7.47;;;;;;;13.15;57.64;100858.94;5052126;28;20040;-72
2023/05/30 04:41:58;;;;;;;23.30;8.07;;;;;;;13.08;57.83;100864.63;5051310;28;20036;-72
2023/05/30 04:44:24;;;;;;;21.05;8.52;;;;;;;13.14;58.10;100863.59;5053257;28;20105;-72
2023/05/30 04:46:50;;;;;;;17.65;7.72;;;;;;;13.35;57.47;100866.56;5053064;28;20037;-73
2023/05/30 04:49:16;;;;;;;21.45;7.68;;;;;;;13.35;57.78;100866.56;5050778;28;20053;-72
2023/05/30 04:51:41;;;;;;;12.85;8.25;;;;;;;13.39;57.99;100867.72;5052596;28;20048;-73
2023/05/30 04:54:07;;;;;;;26.35;7.85;;;;;;;13.36;57.73;100867.41;5052691;28;20037;-73
2023/05/30 04:56:32;;;;;;;16.55;6.20;;;;;;;13.36;57.83;100868.25;5052805;28;20060;-73
2023/05/30 04:58:58;;;;;;;20.83;8.70;;;;;;;13.37;57.91;100869.06;5052298;28;20033;-73
2023/05/30 05:01:24;;;;;;;16.42;7.03;;;;;;;13.42;57.44;100863.66;5052694;28;20028;-73
2023/05/30 05:03:50;;;;;;;31.70;7.80;;;;;;;13.16;57.97;100874.31;5052793;28;20079;-73
2023/05/30 05:06:16;;;;;;;16.80;7.35;;;;;;;13.25;58.26;100869.19;5052697;28;20285;-72
2023/05/30 05:08:41;;;;;;;16.65;7.63;;;;;;;13.46;57.85;100873.00;5051990;28;20039;-72
2023/05/30 05:11:07;;;;;;;20.08;7.57;;;;;;;13.62;57.46;100870.47;5052600;28;20059;-72
2023/05/30 05:13:33;;;;;;;15.50;7.30;;;;;;;13.58;57.86;100874.78;5053272;28;20060;-72
2023/05/30 05:15:58;;;;;;;16.45;7.95;;;;;;;13.68;57.26;100868.59;5051170;28;20123;-72
2023/05/30 05:18:24;;;;;;;17.60;7.30;;;;;;;13.67;56.89;100873.22;5051825;28;20663;-72
2023/05/30 05:20:50;;;;;;;17.52;7.53;;;;;;;13.82;56.01;100867.09;5051864;28;21205;-73
2023/05/30 05:23:16;;;;;;;22.25;7.88;;;;;;;13.80;56.20;100873.91;5052334;28;20509;-72
2023/05/30 05:25:41;;;;;;;16.45;7.40;;;;;;;13.47;56.73;100871.91;5050644;28;20122;-72
2023/05/30 05:28:07;;;;;;;14.70;7.10;;;;;;;13.59;56.85;100876.44;5054427;28;20221;-72
2023/05/30 05:30:32;;;;;;;16.73;7.23;;;;;;;13.66;56.80;100871.59;5055336;28;20755;-72
2023/05/30 05:32:57;;;;;;;13.15;7.20;;;;;;;13.79;56.26;100864.03;5056621;28;20265;-72
2023/05/30 05:35:22;;;;;;;15.55;8.32;;;;;;;13.67;56.55;100872.44;5056093;28;20033;-72
2023/05/30 05:37:48;;;;;;;18.07;7.97;;;;;;;13.77;56.50;100872.50;5055165;28;20486;-72
2023/05/30 05:40:13;;;;;;;18.52;7.28;;;;;;;13.94;55.58;100877.88;5055929;28;20356;-72
2023/05/30 05:42:39;;;;;;;13.85;6.05;;;;;;;13.75;56.52;100880.19;5056527;28;20037;-72
2023/05/30 05:45:05;;;;;;;19.67;7.00;;;;;;;13.83;56.10;100874.22;5055018;28;20029;-72
2023/05/30 05:47:31;;;;;;;17.63;6.80;;;;;;;13.83;56.27;100882.44;5056362;28;20398;-72
2023/05/30 05:49:56;;;;;;;16.27;7.95;;;;;;;13.67;56.61;100878.72;5055674;28;20044;-72
2023/05/30 05:52:22;;;;;;;25.35;6.18;;;;;;;13.62;55.89;100881.41;5056643;28;20052;-72
2023/05/30 05:54:47;;;;;;;15.32;6.60;;;;;;;13.54;56.38;100877.22;5054686;28;20391;-73
2023/05/30 05:57:12;;;;;;;19.03;5.80;;;;;;;13.80;55.96;100885.72;5056078;28;20064;-73
2023/05/30 05:59:37;;;;;;;21.73;6.87;;;;;;;13.75;56.21;100880.19;5056114;28;20253;-73
2023/05/30 06:02:03;;;;;;;15.63;6.73;;;;;;;13.73;56.09;100882.34;5056232;28;20357;-73
2023/05/30 06:04:28;;;;;;;16.67;5.93;;;;;;;13.66;56.47;100890.78;5055081;28;20282;-72
2023/05/30 06:06:53;;;;;;;18.15;5.15;;;;;;;13.56;57.03;100885.19;5056265;28;20116;-72
2023/05/30 06:09:19;;;;;;;16.55;6.45;;;;;;;13.49;56.90;100888.09;5055648;28;20036;-72
2023/05/30 06:11:44;;;;;;;19.95;6.07;;;;;;;13.57;56.30;100887.66;5056313;28;20115;-72
2023/05/30 06:14:10;;;;;;;13.73;6.40;;;;;;;13.78;56.51;100887.88;5054891;28;20029;-72
2023/05/30 06:16:35;;;;;;;20.25;6.20;;;;;;;13.87;55.82;100889.06;5054590;28;20040;-71
2023/05/30 06:19:00;;;;;;;15.02;5.60;;;;;;;13.91;56.17;100886.66;5055701;28;20029;-77
2023/05/30 06:21:25;;;;;;;12.50;5.60;;;;;;;13.96;56.33;100888.59;5055576;28;20060;-73
2023/05/30 06:23:51;;;;;;;19.23;6.70;;;;;;;13.96;55.65;100888.59;5055824;28;21293;-72
2023/05/30 06:26:16;;;;;;;20.27;6.20;;;;;;;13.83;55.62;100887.91;5055803;28;20285;-72
2023/05/30 06:28:41;;;;;;;21.48;7.05;;;;;;;13.80;56.11;100879.38;5055262;28;20538;-72
2023/05/30 06:31:07;;;;;;;14.65;7.03;;;;;;;13.83;55.58;100884.38;5055306;28;20129;-73
2023/05/30 06:33:32;;;;;;;17.60;7.17;;;;;;;13.98;55.30;100889.16;5054026;28;20532;-72
2023/05/30 06:35:57;;;;;;;16.30;6.97;;;;;;;14.12;54.60;100884.91;5055488;28;20258;-72
2023/05/30 06:38:23;;;;;;;15.87;6.53;;;;;;;13.99;54.99;100888.06;5053966;28;20090;-73
2023/05/30 06:40:49;;;;;;;16.33;5.93;;;;;;;13.97;55.54;100891.06;5054247;28;20312;-74
2023/05/30 06:43:14;;;;;;;15.77;5.47;;;;;;;14.00;55.29;100900.69;5055207;28;20036;-71
2023/05/30 06:45:39;;;;;;;11.07;5.60;;;;;;;14.12;54.96;100897.78;5055765;28;20506;-71
2023/05/30 06:48:05;;;;;;;18.20;6.28;;;;;;;14.08;55.36;100894.72;5054584;28;20373;-72
2023/05/30 06:50:30;;;;;;;15.55;6.47;;;;;;;13.88;55.58;100898.94;5053768;28;20494;-71
2023/05/30 06:52:55;;;;;;;13.15;5.80;;;;;;;13.87;55.67;100889.06;5054955;28;20033;-71
2023/05/30 06:55:21;;;;;;;16.52;5.88;;;;;;;14.00;55.18;100897.94;5055542;28;20111;-71
2023/05/30 06:57:48;;;;;;;17.47;6.67;;;;;;;14.13;55.88;100896.69;5053909;28;20115;-72
2023/05/30 07:00:14;;;;;;;15.43;7.25;;;;;;;14.29;55.19;100894.06;5054920;28;20278;-72
2023/05/30 07:02:39;;;;;;;14.48;7.00;;;;;;;14.35;54.85;100899.34;5054909;28;20048;-72
2023/05/30 07:05:05;;;;;;;18.90;7.00;;;;;;;14.33;54.58;100895.19;5053863;28;20489;-72
2023/05/30 07:07:30;;;;;;;24.08;7.82;;;;;;;14.15;55.69;100900.00;5053642;28;20257;-72
2023/05/30 07:09:55;;;;;;;13.02;5.53;;;;;;;14.21;55.58;100896.22;5054577;28;20032;-71
2023/05/30 07:12:21;;;;;;;16.57;6.87;;;;;;;14.28;54.77;100895.97;5054999;28;20482;-72
2023/05/30 07:14:46;;;;;;;12.95;5.63;;;;;;;14.28;54.24;100898.72;5054884;28;20426;-72
2023/05/30 07:17:11;;;;;;;15.13;5.85;;;;;;;14.25;55.29;100896.50;5055396;28;20033;-72
2023/05/30 07:19:37;;;;;;;18.37;7.50;;;;;;;14.32;55.45;100901.78;5054732;28;20507;-73
2023/05/30 07:22:02;;;;;;;17.80;7.10;;;;;;;14.23;55.39;100907.75;5052934;28;20320;-73
2023/05/30 07:24:27;;;;;;;13.68;6.95;;;;;;;14.38;54.61;100905.41;5054115;28;20037;-71
2023/05/30 07:26:52;;;;;;;13.60;6.68;;;;;;;14.54;54.98;100901.66;5053832;28;20033;-73
2023/05/30 07:29:18;;;;;;;21.02;7.25;;;;;;;14.70;54.30;100893.53;5054008;28;20032;-72
2023/05/30 07:31:44;;;;;;;14.45;6.90;;;;;;;14.51;55.40;100895.88;5054605;28;20760;-72
2023/05/30 07:34:09;;;;;;;15.15;5.97;;;;;;;14.56;54.73;100902.22;5053923;28;20040;-72
2023/05/30 07:36:35;;;;;;;17.00;6.55;;;;;;;14.66;54.53;100903.38;5054188;28;20127;-72
2023/05/30 07:39:00;;;;;;;15.68;6.40;;;;;;;14.57;55.09;100903.03;5052889;28;20051;-72
2023/05/30 07:41:26;;;;;;;15.50;6.33;;;;;;;14.59;54.81;100901.69;5054292;28;20020;-72
2023/05/30 07:43:51;;;;;;;18.88;6.68;;;;;;;14.64;54.43;100905.56;5053818;28;20615;-72
2023/05/30 07:46:17;;;;;;;14.07;5.70;;;;;;;14.73;54.40;100914.13;5053772;28;20581;-72
2023/05/30 07:48:42;;;;;;;15.10;5.63;;;;;;;14.96;53.75;100909.34;5053600;28;20334;-73
2023/05/30 07:51:09;;;;;;;12.47;6.37;;;;;;;14.99;54.15;100906.88;5053681;28;21145;-73
2023/05/30 07:53:34;;;;;;;12.18;6.22;;;;;;;14.96;53.69;100906.59;5053953;28;20357;-73
2023/05/30 07:55:59;;;;;;;15.90;6.88;;;;;;;14.80;54.80;100901.00;5054532;28;20119;-72
2023/05/30 07:58:25;;;;;;;20.23;7.10;;;;;;;14.90;54.42;100900.25;5053779;28;20063;-72
2023/05/30 08:00:50;;;;;;;15.23;6.20;;;;;;;15.03;53.96;100913.50;5053990;28;20052;-73
2023/05/30 08:03:15;;;;;;;13.25;6.50;;;;;;;15.21;53.62;100897.69;5053896;28;20032;-72
2023/05/30 08:05:40;;;;;;;18.90;7.73;;;;;;;15.26;54.83;100894.94;5054060;28;20032;-72
2023/05/30 08:08:07;;;;;;;14.55;6.90;;;;;;;15.27;54.74;100893.84;5053394;28;20285;-72
2023/05/30 08:10:32;;;;;;;17.92;5.65;;;;;;;15.37;54.74;100890.31;5053845;28;20028;-72
2023/05/30 08:12:58;;;;;;;15.23;6.60;;;;;;;15.46;53.21;100898.03;5053943;28;20054;-72
2023/05/30 08:15:23;;;;;;;15.20;6.72;;;;;;;15.36;53.81;100890.56;5053817;28;20478;-72
2023/05/30 08:17:48;;;;;;;17.93;7.50;;;;;;;15.31;53.90;100890.56;5053855;28;20051;-72
2023/05/30 08:20:14;;;;;;;14.32;7.15;;;;;;;15.38;53.19;100891.13;5053282;28;20304;-72
2023/05/30 08:22:39;;;;;;;13.65;6.55;;;;;;;15.52;53.82;100897.75;5054088;28;20064;-73
2023/05/30 08:25:05;;;;;;;10.27;5.60;;;;;;;15.34;53.17;100890.84;5053736;28;20119;-73
2023/05/30 08:27:31;;;;;;;15.05;5.60;;;;;;;15.40;53.91;100888.94;5054204;28;20037;-72
2023/05/30 08:29:56;;;;;;;13.75;5.95;;;;;;;15.29;53.33;100886.13;5053259;28;20032;-72
2023/05/30 08:32:22;;;;;;;11.07;6.30;;;;;;;15.52;52.97;100899.66;5053854;28;20040;-72
2023/05/30 08:34:47;;;;;;;17.75;7.13;;;;;;;15.63;52.89;100900.53;5053912;28;20037;-72
2023/05/30 08:37:12;;;;;;;16.73;6.72;;;;;;;15.73;52.29;100902.47;5053856;28;20758;-72
2023/05/30 08:39:38;;;;;;;21.15;5.85;;;;;;;15.79;52.17;100903.31;5053263;28;20057;-72
2023/05/30 08:42:05;;;;;;;16.45;5.70;;;;;;;15.91;51.64;100892.88;5053675;28;20107;-72
2023/05/30 08:44:31;;;;;;;14.55;5.82;;;;;;;15.94;51.82;100895.09;5053919;28;20441;-72
2023/05/30 08:46:57;;;;;;;15.98;6.38;;;;;;;16.07;51.67;100884.66;5053648;28;20028;-72
2023/05/30 08:49:23;;;;;;;13.25;5.22;;;;;;;16.10;52.11;100887.72;5053275;28;20469;-73
2023/05/30 08:51:50;;;;;;;18.42;5.85;;;;;;;16.26;51.27;100892.38;5053504;28;20059;-73
2023/05/30 08:54:20;;;;;;;17.33;6.35;;;;;;;16.15;51.69;100884.13;5053686;28;20456;-72
2023/05/30 08:56:58;;;;;;;13.57;5.32;;;;;;;16.30;50.87;100887.97;5053757;28;20048;-73
2023/05/30 08:59:25;;;;;;;14.38;5.97;;;;;;;16.37;51.19;100885.78;5053390;28;20472;-72
2023/05/30 09:01:53;;;;;;;8.88;4.72;;;;;;;16.39;51.27;100880.81;5054077;28;21244;-72
2023/05/30 09:04:19;;;;;;;15.80;6.32;;;;;;;16.40;51.68;100882.47;5055942;28;20237;-73
2023/05/30 09:06:46;;;;;;;13.73;5.30;;;;;;;16.59;51.67;100890.16;5057044;28;20896;-72
2023/05/30 09:09:13;;;;;;;14.88;5.13;;;;;;;16.84;51.18;100884.84;5056512;28;20063;-72
2023/05/30 09:11:39;;;;;;;12.35;5.60;;;;;;;17.10;49.96;100874.56;5057428;28;20040;-72
2023/05/30 09:14:05;;;;;;;22.55;5.20;;;;;;;17.08;50.64;100876.78;5057075;28;20198;-73
2023/05/30 09:16:30;;;;;;;14.10;6.10;;;;;;;17.07;51.31;100866.84;5057165;28;20474;-72
2023/05/30 09:18:56;;;;;;;17.42;6.93;;;;;;;17.22;49.92;100885.28;5056116;28;20037;-73
2023/05/30 09:21:21;;;;;;;14.40;6.10;;;;;;;17.29;49.45;100876.69;5056880;28;20541;-72
2023/05/30 09:23:47;;;;;;;15.93;5.53;;;;;;;17.21;49.28;100888.31;5056938;28;20278;-73
2023/05/30 09:26:14;;;;;;;12.88;5.70;;;;;;;17.16;48.84;100880.91;5056647;28;20112;-72
2023/05/30 09:28:40;;;;;;;10.85;4.50;;;;;;;17.24;49.52;100885.00;5056143;28;20399;-72
2023/05/30 09:31:06;;;;;;;13.00;5.32;;;;;;;17.44;49.01;100878.56;5056722;28;20044;-73
2023/05/30 09:33:49;;;;;;;9.05;4.43;;;;;;;17.44;49.53;100869.47;5056407;28;20449;-72
2023/05/30 09:36:23;;;;;;;12.85;5.28;;;;;;;17.43;48.70;100867.84;5056339;28;20040;-73
2023/05/30 09:38:54;;;;;;;7.90;4.32;;;;;;;17.49;49.84;100870.25;5055823;28;20044;-72
2023/05/30 09:41:20;;;;;;;11.13;5.43;;;;;;;17.45;48.90;100865.63;5056134;28;20032;-72
2023/05/30 09:43:52;;;;;;;22.17;5.38;;;;;;;17.64;48.04;100874.03;5056224;28;20036;-72
2023/05/30 09:46:17;;;;;;;13.52;6.00;;;;;;;17.64;50.22;100867.69;5054738;28;20028;-72
2023/05/30 09:48:42;;;;;;;16.95;6.18;;;;;;;17.67;48.67;100872.63;5055338;28;20041;-72
2023/05/30 09:51:08;;;;;;;19.83;5.87;;;;;;;17.94;47.61;100871.34;5055821;28;20116;-72
2023/05/30 09:53:34;;;;;;;12.43;4.57;;;;;;;18.01;47.45;100874.59;5054778;28;20033;-72
2023/05/30 09:56:01;;;;;;;7.53;4.13;;;;;;;18.17;47.10;100874.50;5055914;28;20041;-72
2023/05/30 09:58:26;;;;;;;14.43;5.95;;;;;;;18.27;46.14;100874.41;5054197;28;20122;-72
2023/05/30 10:00:53;;;;;;;9.60;4.18;;;;;;;18.23;44.89;100886.31;5054469;28;20041;-72
2023/05/30 10:03:41;;;;;;;9.80;3.55;;;;;;;18.50;45.56;100883.03;5055850;28;20900;-72
2023/05/30 10:06:13;;;;;;;10.73;5.13;;;;;;;18.49;45.04;100886.09;5054525;28;20083;-72
2023/05/30 10:08:42;;;;;;;11.38;4.32;;;;;;;18.55;44.96;100888.47;5053671;28;20040;-73
2023/05/30 10:11:08;;;;;;;13.70;5.05;;;;;;;18.32;45.83;100876.31;5055659;28;20029;-72
2023/05/30 10:13:33;;;;;;;19.65;5.95;;;;;;;18.40;46.28;100877.59;5054235;28;20016;-72
2023/05/30 10:16:00;;;;;;;9.70;5.30;;;;;;;18.69;45.84;100879.53;5055729;28;20094;-73
2023/05/30 10:18:26;;;;;;;11.32;5.05;;;;;;;18.82;45.78;100877.16;5055013;28;20071;-73
2023/05/30 10:20:52;;;;;;;11.95;4.95;;;;;;;18.88;45.01;100873.22;5055100;28;20524;-72
2023/05/30 10:23:19;;;;;;;12.13;6.13;;;;;;;19.01;43.70;100874.47;5055298;28;20528;-72
2023/05/30 10:25:49;;;;;;;17.58;5.60;;;;;;;19.04;43.21;100871.09;5055535;28;20041;-73
2023/05/30 10:28:18;;;;;;;11.20;4.40;;;;;;;19.15;43.96;100858.00;5055089;28;20037;-72
2023/05/30 10:30:46;;;;;;;11.10;4.43;;;;;;;19.23;42.75;100864.81;5054251;28;20056;-73
2023/05/30 10:33:14;;;;;;;12.13;4.63;;;;;;;19.29;43.15;100858.09;5055340;28;20021;-73
2023/05/30 10:35:39;;;;;;;16.60;5.13;;;;;;;19.31;42.58;100849.50;5055429;28;20040;-72
2023/05/30 10:38:07;;;;;;;11.13;5.03;;;;;;;19.31;43.37;100853.09;5054390;28;20070;-72
2023/05/30 10:40:57;;;;;;;10.85;5.90;;;;;;;19.18;43.50;100851.88;5055685;28;20254;-73
2023/05/30 10:43:43;;;;;;;11.30;4.45;;;;;;;19.46;42.44;100845.69;5055162;28;20032;-72
2023/05/30 10:46:23;;;;;;;12.27;4.72;;;;;;;19.52;40.93;100843.69;5055262;28;20067;-73
2023/05/30 10:48:52;;;;;;;7.88;4.15;;;;;;;19.51;42.45;100836.50;5054665;28;20036;-73
2023/05/30 10:51:19;;;;;;;11.20;3.63;;;;;;;19.75;42.06;100835.59;5055366;28;20091;-72
2023/05/30 10:53:47;;;;;;;6.68;4.03;;;;;;;19.62;40.92;100826.94;5054983;28;20410;-73
2023/05/30 10:56:38;;;;;;;9.50;4.90;;;;;;;19.76;42.60;100837.22;5054986;28;20493;-73
2023/05/30 10:59:11;;;;;;;15.73;5.47;;;;;;;20.01;42.67;100830.47;5054224;28;20086;-72
2023/05/30 11:01:38;;;;;;;10.77;5.18;;;;;;;20.10;43.06;100829.75;5055092;28;20032;-72
2023/05/30 11:04:05;;;;;;;10.57;5.03;;;;;;;19.83;44.37;100826.63;5053223;28;20156;-73
2023/05/30 11:06:35;;;;;;;15.45;6.60;;;;;;;20.08;43.74;100827.31;5055031;28;20064;-72
2023/05/30 11:09:12;;;;;;;15.85;5.78;;;;;;;20.30;42.93;100821.09;5054128;28;20032;-72
2023/05/30 11:11:46;;;;;;;15.80;5.70;;;;;;;20.30;43.04;100807.25;5055108;28;20029;-72
2023/05/30 11:14:14;;;;;;;10.05;5.30;;;;;;;20.41;41.32;100813.44;5054614;28;20061;-72
2023/05/30 11:16:56;;;;;;;10.40;4.78;;;;;;;20.39;39.96;100803.78;5053256;28;20025;-72
2023/05/30 11:19:35;;;;;;;13.18;4.93;;;;;;;20.36;41.52;100807.97;5054165;28;20037;-73